sensor_id;sensor_type;location;lat;lon;timestamp;pressure;altitude;pressure_sealevel;temperature;humidity
20696;BME280;10507;52.754;13.040;2023-02-13T00:00:16;103344.16;;;7.02;100.00
20696;BME280;10507;52.754;13.040;2023-02-13T00:03:09;103355.69;;;7.04;100.00
20696;BME280;10507;52.754;13.040;2023-02-13T00:06:02;103349.47;;;7.02;100.00
20696;BME280;10507;52.754;13.040;2023-02-13T00:08:55;103342.34;;;7.01;100.00
20696;BME280;10507;52.754;13.040;2023-02-13T00:11:47;103333.53;;;7.02;100.00
20696;BME280;10507;52.754;13.040;2023-02-13T00:14:42;103314.00;;;6.97;100.00
20696;BME280;10507;52.754;13.040;2023-02-13T00:17:34;103321.09;;;6.98;100.00
20696;BME280;10507;52.754;13.040;2023-02-13T00:20:27;103313.13;;;6.98;100.00
20696;BME280;10507;52.754;13.040;2023-02-13T00:23:20;103306.03;;;6.97;100.00
20696;BME280;10507;52.754;13.040;2023-02-13T00:26:14;103317.53;;;6.99;100.00
20696;BME280;10507;52.754;13.040;2023-02-13T00:29:06;103314.88;;;6.99;100.00
20696;BME280;10507;52.754;13.040;2023-02-13T00:31:59;103305.16;;;6.98;100.00
20696;BME280;10507;52.754;13.040;2023-02-13T00:34:51;103286.53;;;6.95;100.00
20696;BME280;10507;52.754;13.040;2023-02-13T00:37:44;103282.09;;;6.94;100.00
20696;BME280;10507;52.754;13.040;2023-02-13T00:40:37;103267.03;;;6.92;100.00
20696;BME280;10507;52.754;13.040;2023-02-13T00:43:29;103286.50;;;6.91;100.00
20696;BME280;10507;52.754;13.040;2023-02-13T00:46:21;103277.66;;;6.89;100.00
20696;BME280;10507;52.754;13.040;2023-02-13T00:49:13;103279.41;;;6.90;100.00
20696;BME280;10507;52.754;13.040;2023-02-13T00:52:05;103262.59;;;6.89;100.00
20696;BME280;10507;52.754;13.040;2023-02-13T00:55:00;103264.34;;;6.84;100.00
20696;BME280;10507;52.754;13.040;2023-02-13T00:57:53;103290.00;;;6.85;100.00
20696;BME280;10507;52.754;13.040;2023-02-13T01:00:46;103290.88;;;6.84;100.00
20696;BME280;10507;52.754;13.040;2023-02-13T01:03:38;103289.97;;;6.83;100.00
20696;BME280;10507;52.754;13.040;2023-02-13T01:06:30;103290.84;;;6.81;100.00
20696;BME280;10507;52.754;13.040;2023-02-13T01:09:22;103292.59;;;6.79;100.00
20696;BME280;10507;52.754;13.040;2023-02-13T01:12:15;103302.34;;;6.80;100.00
20696;BME280;10507;52.754;13.040;2023-02-13T01:15:09;103301.44;;;6.78;100.00
20696;BME280;10507;52.754;13.040;2023-02-13T01:18:01;103306.75;;;6.76;100.00
20696;BME280;10507;52.754;13.040;2023-02-13T01:20:58;103303.19;;;6.73;100.00
20696;BME280;10507;52.754;13.040;2023-02-13T01:23:49;103306.69;;;6.72;100.00
20696;BME280;10507;52.754;13.040;2023-02-13T01:26:42;103327.94;;;6.72;100.00
20696;BME280;10507;52.754;13.040;2023-02-13T01:29:34;103318.16;;;6.66;100.00
20696;BME280;10507;52.754;13.040;2023-02-13T01:32:28;103352.72;;;6.71;100.00
20696;BME280;10507;52.754;13.040;2023-02-13T11:22:28;103227.69;;;7.99;100.00
20696;BME280;10507;52.754;13.040;2023-02-13T11:25:00;103212.59;;;8.04;100.00
20696;BME280;10507;52.754;13.040;2023-02-13T11:27:32;103202.84;;;8.05;100.00
20696;BME280;10507;52.754;13.040;2023-02-13T11:30:04;103167.38;;;8.04;100.00
20696;BME280;10507;52.754;13.040;2023-02-13T11:32:33;103170.94;;;8.08;100.00
20696;BME280;10507;52.754;13.040;2023-02-13T11:35:25;103172.69;;;8.09;100.00
20696;BME280;10507;52.754;13.040;2023-02-13T11:38:21;103137.22;;;8.07;100.00
20696;BME280;10507;52.754;13.040;2023-02-13T11:40:51;103079.59;;;8.06;100.00
20696;BME280;10507;52.754;13.040;2023-02-13T11:43:26;103076.06;;;7.96;100.00
20696;BME280;10507;52.754;13.040;2023-02-13T11:46:03;103073.38;;;8.02;100.00
20696;BME280;10507;52.754;13.040;2023-02-13T11:48:33;103034.34;;;7.94;100.00
20696;BME280;10507;52.754;13.040;2023-02-13T11:51:02;103060.97;;;7.95;100.00
20696;BME280;10507;52.754;13.040;2023-02-13T11:53:36;103032.59;;;8.02;100.00
20696;BME280;10507;52.754;13.040;2023-02-13T11:56:08;103001.56;;;8.01;100.00
20696;BME280;10507;52.754;13.040;2023-02-13T11:58:37;102988.25;;;8.02;100.00
20696;BME280;10507;52.754;13.040;2023-02-13T12:01:20;102990.03;;;8.08;100.00
20696;BME280;10507;52.754;13.040;2023-02-13T12:04:04;102936.81;;;8.03;100.00
20696;BME280;10507;52.754;13.040;2023-02-13T12:06:34;102941.22;;;8.09;100.00
20696;BME280;10507;52.754;13.040;2023-02-13T12:09:13;102937.66;;;8.11;100.00
20696;BME280;10507;52.754;13.040;2023-02-13T12:11:44;102899.56;;;8.05;100.00
20696;BME280;10507;52.754;13.040;2023-02-13T12:14:17;102883.63;;;7.96;100.00
20696;BME280;10507;52.754;13.040;2023-02-13T12:16:48;102904.91;;;8.02;100.00
20696;BME280;10507;52.754;13.040;2023-02-13T12:19:21;102887.19;;;7.96;100.00
20696;BME280;10507;52.754;13.040;2023-02-13T12:22:05;102869.44;;;7.94;100.00
20696;BME280;10507;52.754;13.040;2023-02-13T12:25:08;102896.94;;;7.99;100.00
20696;BME280;10507;52.754;13.040;2023-02-13T12:27:45;102880.09;;;7.97;100.00
20696;BME280;10507;52.754;13.040;2023-02-13T12:33:22;102826.03;;;7.82;100.00
20696;BME280;10507;52.754;13.040;2023-02-13T12:35:56;102854.41;;;7.86;100.00
20696;BME280;10507;52.754;13.040;2023-02-13T12:38:42;102842.88;;;7.84;100.00
20696;BME280;10507;52.754;13.040;2023-02-13T12:41:17;102928.84;;;8.02;100.00
20696;BME280;10507;52.754;13.040;2023-02-13T12:44:06;102875.63;;;8.03;100.00
20696;BME280;10507;52.754;13.040;2023-02-13T12:46:48;102833.09;;;7.99;100.00
20696;BME280;10507;52.754;13.040;2023-02-13T12:49:33;102792.28;;;8.01;99.16
20696;BME280;10507;52.754;13.040;2023-02-13T12:52:20;102731.16;;;7.90;98.94
20696;BME280;10507;52.754;13.040;2023-02-13T12:55:01;102778.16;;;7.90;98.92
20696;BME280;10507;52.754;13.040;2023-02-13T12:57:44;102815.38;;;7.90;99.62
20696;BME280;10507;52.754;13.040;2023-02-13T13:00:28;102800.28;;;7.97;99.06
20696;BME280;10507;52.754;13.040;2023-02-13T13:03:10;102819.75;;;8.05;99.19
20696;BME280;10507;52.754;13.040;2023-02-13T13:05:59;102766.56;;;8.00;98.74
20696;BME280;10507;52.754;13.040;2023-02-13T13:09:04;102756.81;;;7.99;98.46
20696;BME280;10507;52.754;13.040;2023-02-13T13:11:52;102772.72;;;8.11;97.67
20696;BME280;10507;52.754;13.040;2023-02-13T13:14:33;102734.59;;;8.11;97.18
20696;BME280;10507;52.754;13.040;2023-02-13T13:17:08;102754.97;;;8.17;97.60
20696;BME280;10507;52.754;13.040;2023-02-13T13:19:49;102687.59;;;8.08;97.15
20696;BME280;10507;52.754;13.040;2023-02-13T13:22:23;102648.69;;;7.98;96.33
20696;BME280;10507;52.754;13.040;2023-02-13T13:25:01;102671.63;;;8.10;96.29
20696;BME280;10507;52.754;13.040;2023-02-13T13:27:36;102635.31;;;8.07;96.43
20696;BME280;10507;52.754;13.040;2023-02-13T13:30:17;102628.25;;;8.02;96.31
20696;BME280;10507;52.754;13.040;2023-02-13T13:32:50;102652.19;;;8.02;96.16
20696;BME280;10507;52.754;13.040;2023-02-13T13:35:24;102604.41;;;7.89;96.06
20696;BME280;10507;52.754;13.040;2023-02-13T13:37:56;102600.00;;;7.82;96.60
20696;BME280;10507;52.754;13.040;2023-02-13T13:40:37;102613.28;;;7.85;96.71
20696;BME280;10507;52.754;13.040;2023-02-13T13:43:16;102612.38;;;7.86;96.50
20696;BME280;10507;52.754;13.040;2023-02-13T13:45:55;102606.16;;;7.89;96.59
20696;BME280;10507;52.754;13.040;2023-02-13T13:48:55;102603.50;;;7.92;95.93
20696;BME280;10507;52.754;13.040;2023-02-13T13:51:27;102608.84;;;7.86;96.17
20696;BME280;10507;52.754;13.040;2023-02-13T13:54:19;102618.56;;;7.91;96.03
20696;BME280;10507;52.754;13.040;2023-02-13T13:57:10;102607.09;;;7.85;96.55
20696;BME280;10507;52.754;13.040;2023-02-13T14:00:18;102582.31;;;7.78;96.28
20696;BME280;10507;52.754;13.040;2023-02-13T14:06:01;102574.38;;;7.74;97.01
20696;BME280;10507;52.754;13.040;2023-02-13T14:08:58;102569.06;;;7.72;96.70
20696;BME280;10507;52.754;13.040;2023-02-13T14:11:44;102589.47;;;7.70;97.17
20696;BME280;10507;52.754;13.040;2023-02-13T14:17:15;102645.25;;;7.73;97.96
20696;BME280;10507;52.754;13.040;2023-02-13T14:19:50;102616.97;;;7.69;97.71
20696;BME280;10507;52.754;13.040;2023-02-13T14:22:30;102631.97;;;7.73;98.06
20696;BME280;10507;52.754;13.040;2023-02-13T14:25:01;102570.88;;;7.65;98.18
20696;BME280;10507;52.754;13.040;2023-02-13T14:27:33;102597.41;;;7.75;96.97
20696;BME280;10507;52.754;13.040;2023-02-13T14:30:04;102531.91;;;7.61;97.50
20696;BME280;10507;52.754;13.040;2023-02-13T14:32:36;102515.06;;;7.64;96.79
20696;BME280;10507;52.754;13.040;2023-02-13T14:35:16;102541.66;;;7.64;97.22
20696;BME280;10507;52.754;13.040;2023-02-13T14:37:49;102565.56;;;7.67;98.09
20696;BME280;10507;52.754;13.040;2023-02-13T14:40:30;102552.28;;;7.64;97.54
20696;BME280;10507;52.754;13.040;2023-02-13T14:46:14;102522.13;;;7.66;97.67
20696;BME280;10507;52.754;13.040;2023-02-13T14:48:50;102511.56;;;7.57;97.77
20696;BME280;10507;52.754;13.040;2023-02-13T14:51:23;102548.75;;;7.62;97.50
20696;BME280;10507;52.754;13.040;2023-02-13T14:53:59;102551.44;;;7.57;98.16
20696;BME280;10507;52.754;13.040;2023-02-13T14:56:30;102507.19;;;7.50;97.52
20696;BME280;10507;52.754;13.040;2023-02-13T14:59:04;102545.28;;;7.50;98.20
20696;BME280;10507;52.754;13.040;2023-02-13T15:01:43;102551.50;;;7.51;98.22
20696;BME280;10507;52.754;13.040;2023-02-13T15:04:15;102525.84;;;7.45;98.68
20696;BME280;10507;52.754;13.040;2023-02-13T15:06:45;102526.75;;;7.41;98.11
20696;BME280;10507;52.754;13.040;2023-02-13T15:09:23;102478.97;;;7.31;97.87
20696;BME280;10507;52.754;13.040;2023-02-13T15:11:55;102527.69;;;7.34;98.84
20696;BME280;10507;52.754;13.040;2023-02-13T15:14:29;102536.53;;;7.36;98.21
20696;BME280;10507;52.754;13.040;2023-02-13T15:17:02;102490.50;;;7.31;97.95
20696;BME280;10507;52.754;13.040;2023-02-13T15:19:35;102487.81;;;7.34;98.14
20696;BME280;10507;52.754;13.040;2023-02-13T15:22:06;102481.63;;;7.31;98.49
20696;BME280;10507;52.754;13.040;2023-02-13T15:24:37;102492.25;;;7.32;98.63
20696;BME280;10507;52.754;13.040;2023-02-13T15:27:17;102465.72;;;7.27;98.05
20696;BME280;10507;52.754;13.040;2023-02-13T15:29:54;102487.88;;;7.26;98.94
20696;BME280;10507;52.754;13.040;2023-02-13T15:32:27;102471.94;;;7.23;99.02
20696;BME280;10507;52.754;13.040;2023-02-13T15:34:56;102460.44;;;7.23;99.04
20696;BME280;10507;52.754;13.040;2023-02-13T15:37:28;102447.16;;;7.23;98.81
20696;BME280;10507;52.754;13.040;2023-02-13T15:40:23;102470.19;;;7.22;98.94
20696;BME280;10507;52.754;13.040;2023-02-13T15:43:21;102474.63;;;7.19;99.35
20696;BME280;10507;52.754;13.040;2023-02-13T15:46:19;102481.72;;;7.17;98.85
20696;BME280;10507;52.754;13.040;2023-02-13T15:49:14;102460.50;;;7.15;98.94
20696;BME280;10507;52.754;13.040;2023-02-13T15:52:13;102456.09;;;7.10;99.25
20696;BME280;10507;52.754;13.040;2023-02-13T15:55:18;102449.94;;;7.01;99.77
20696;BME280;10507;52.754;13.040;2023-02-13T15:58:11;102479.19;;;6.97;100.00
20696;BME280;10507;52.754;13.040;2023-02-13T16:01:05;102499.56;;;6.95;100.00
20696;BME280;10507;52.754;13.040;2023-02-13T16:04:01;102532.31;;;6.97;100.00
20696;BME280;10507;52.754;13.040;2023-02-13T16:06:55;102540.28;;;6.98;100.00
20696;BME280;10507;52.754;13.040;2023-02-13T16:09:48;102558.84;;;6.98;100.00
20696;BME280;10507;52.754;13.040;2023-02-13T16:12:46;102587.19;;;7.02;100.00
20696;BME280;10507;52.754;13.040;2023-02-13T16:15:41;102586.28;;;7.00;100.00
20696;BME280;10507;52.754;13.040;2023-02-13T16:18:34;102580.09;;;6.97;100.00
20696;BME280;10507;52.754;13.040;2023-02-13T16:21:27;102578.34;;;6.97;100.00
20696;BME280;10507;52.754;13.040;2023-02-13T16:24:21;102573.03;;;6.93;100.00
20696;BME280;10507;52.754;13.040;2023-02-13T16:27:16;102588.97;;;6.93;100.00
20696;BME280;10507;52.754;13.040;2023-02-13T16:30:32;102569.50;;;6.92;100.00
20696;BME280;10507;52.754;13.040;2023-02-13T16:33:27;102570.41;;;6.91;100.00
20696;BME280;10507;52.754;13.040;2023-02-13T16:36:27;102559.78;;;6.85;100.00
20696;BME280;10507;52.754;13.040;2023-02-13T16:39:20;102563.34;;;6.84;100.00
20696;BME280;10507;52.754;13.040;2023-02-13T16:42:18;102527.94;;;6.79;100.00
20696;BME280;10507;52.754;13.040;2023-02-13T16:45:23;102549.19;;;6.86;100.00
20696;BME280;10507;52.754;13.040;2023-02-13T16:48:16;102499.66;;;6.78;100.00
20696;BME280;10507;52.754;13.040;2023-02-13T16:51:08;102536.81;;;6.84;100.00
20696;BME280;10507;52.754;13.040;2023-02-13T16:54:01;102472.25;;;6.73;100.00
20696;BME280;10507;52.754;13.040;2023-02-13T16:56:55;102483.72;;;6.75;100.00
20696;BME280;10507;52.754;13.040;2023-02-13T16:59:55;102487.28;;;6.68;100.00
20696;BME280;10507;52.754;13.040;2023-02-13T17:03:14;102481.13;;;6.64;100.00
20696;BME280;10507;52.754;13.040;2023-02-13T17:06:08;102497.06;;;6.64;100.00
20696;BME280;10507;52.754;13.040;2023-02-13T17:09:01;102542.16;;;6.65;100.00
20696;BME280;10507;52.754;13.040;2023-02-13T17:11:53;102515.66;;;6.58;100.00
20696;BME280;10507;52.754;13.040;2023-02-13T17:14:45;102530.69;;;6.54;100.00
20696;BME280;10507;52.754;13.040;2023-02-13T17:17:37;102547.50;;;6.50;100.00
20696;BME280;10507;52.754;13.040;2023-02-13T17:20:33;102554.63;;;6.48;100.00
20696;BME280;10507;52.754;13.040;2023-02-13T17:23:26;102581.13;;;6.56;100.00
20696;BME280;10507;52.754;13.040;2023-02-13T17:26:18;102567.84;;;6.54;100.00
20696;BME280;10507;52.754;13.040;2023-02-13T17:29:13;102558.13;;;6.53;100.00
20696;BME280;10507;52.754;13.040;2023-02-13T17:32:05;102550.19;;;6.55;100.00
20696;BME280;10507;52.754;13.040;2023-02-13T17:34:57;102561.66;;;6.55;100.00
20696;BME280;10507;52.754;13.040;2023-02-13T17:37:50;102532.47;;;6.49;100.00
20696;BME280;10507;52.754;13.040;2023-02-13T17:40:43;102540.47;;;6.46;100.00
20696;BME280;10507;52.754;13.040;2023-02-13T17:43:35;102560.78;;;6.52;100.00
20696;BME280;10507;52.754;13.040;2023-02-13T17:46:27;102572.28;;;6.54;100.00
20696;BME280;10507;52.754;13.040;2023-02-13T17:49:19;102581.13;;;6.56;100.00
20696;BME280;10507;52.754;13.040;2023-02-13T17:52:17;102581.97;;;6.61;100.00
20696;BME280;10507;52.754;13.040;2023-02-13T17:55:16;102570.47;;;6.59;100.00
20696;BME280;10507;52.754;13.040;2023-02-13T17:58:11;102589.03;;;6.63;100.00
20696;BME280;10507;52.754;13.040;2023-02-13T18:01:03;102567.84;;;6.60;100.00
20696;BME280;10507;52.754;13.040;2023-02-13T18:03:55;102513.88;;;6.52;100.00
20696;BME280;10507;52.754;13.040;2023-02-13T18:07:12;102518.34;;;6.47;100.00
20696;BME280;10507;52.754;13.040;2023-02-13T18:10:31;102497.16;;;6.39;100.00
20696;BME280;10507;52.754;13.040;2023-02-13T18:13:47;102524.53;;;6.43;100.00
20696;BME280;10507;52.754;13.040;2023-02-13T18:17:03;102528.97;;;6.44;100.00
20696;BME280;10507;52.754;13.040;2023-02-13T18:20:20;102559.91;;;6.45;100.00
20696;BME280;10507;52.754;13.040;2023-02-13T18:23:36;102528.09;;;6.42;100.00
20696;BME280;10507;52.754;13.040;2023-02-13T18:26:53;102515.69;;;6.42;100.00
20696;BME280;10507;52.754;13.040;2023-02-13T18:30:11;102520.09;;;6.45;100.00
20696;BME280;10507;52.754;13.040;2023-02-13T18:33:29;102513.91;;;6.49;100.00
20696;BME280;10507;52.754;13.040;2023-02-13T18:36:45;102490.91;;;6.53;99.84
20696;BME280;10507;52.754;13.040;2023-02-13T18:40:02;102426.34;;;6.48;99.80
20696;BME280;10507;52.754;13.040;2023-02-13T18:43:20;102433.44;;;6.49;99.69
20696;BME280;10507;52.754;13.040;2023-02-13T18:46:36;102418.38;;;6.48;99.51
20696;BME280;10507;52.754;13.040;2023-02-13T18:49:52;102391.91;;;6.40;99.42
20696;BME280;10507;52.754;13.040;2023-02-13T18:53:08;102433.44;;;6.42;100.00
20696;BME280;10507;52.754;13.040;2023-02-13T18:56:24;102428.16;;;6.38;100.00
20696;BME280;10507;52.754;13.040;2023-02-13T18:59:41;102415.78;;;6.34;99.57
20696;BME280;10507;52.754;13.040;2023-02-13T19:02:58;102454.69;;;6.38;100.00
20696;BME280;10507;52.754;13.040;2023-02-13T19:06:17;102425.53;;;6.35;99.69
20696;BME280;10507;52.754;13.040;2023-02-13T19:09:33;102398.13;;;6.31;99.61
20696;BME280;10507;52.754;13.040;2023-02-13T19:12:49;102425.53;;;6.35;100.00
20696;BME280;10507;52.754;13.040;2023-02-13T19:16:08;102442.34;;;6.37;100.00
20696;BME280;10507;52.754;13.040;2023-02-13T19:19:25;102460.00;;;6.38;100.00
20696;BME280;10507;52.754;13.040;2023-02-13T19:22:41;102463.53;;;6.32;100.00
20696;BME280;10507;52.754;13.040;2023-02-13T19:25:57;102434.41;;;6.23;100.00
20696;BME280;10507;52.754;13.040;2023-02-13T19:29:13;102427.38;;;6.19;100.00
20696;BME280;10507;52.754;13.040;2023-02-13T19:32:30;102428.22;;;6.22;100.00
20696;BME280;10507;52.754;13.040;2023-02-13T19:35:55;102437.03;;;6.28;99.82
20696;BME280;10507;52.754;13.040;2023-02-13T19:39:11;102379.63;;;6.16;99.86
20696;BME280;10507;52.754;13.040;2023-02-13T19:42:27;102378.75;;;6.11;99.89
20696;BME280;10507;52.754;13.040;2023-02-13T19:45:43;102369.06;;;6.03;99.84
20696;BME280;10507;52.754;13.040;2023-02-13T19:49:02;102370.81;;;6.04;99.40
20696;BME280;10507;52.754;13.040;2023-02-13T19:52:18;102344.31;;;6.00;99.01
20696;BME280;10507;52.754;13.040;2023-02-13T19:55:34;102355.81;;;6.03;99.13
20696;BME280;10507;52.754;13.040;2023-02-13T19:58:50;102369.94;;;6.04;99.07
20696;BME280;10507;52.754;13.040;2023-02-13T20:02:08;102353.16;;;6.02;99.10
20696;BME280;10507;52.754;13.040;2023-02-13T20:05:30;102324.88;;;5.98;98.63
20696;BME280;10507;52.754;13.040;2023-02-13T20:08:46;102350.50;;;6.02;99.04
20696;BME280;10507;52.754;13.040;2023-02-13T20:12:03;102323.13;;;6.00;98.14
20696;BME280;10507;52.754;13.040;2023-02-13T20:15:20;102350.50;;;6.02;98.82
20696;BME280;10507;52.754;13.040;2023-02-13T20:18:37;102305.44;;;5.96;98.61
20696;BME280;10507;52.754;13.040;2023-02-13T20:21:54;102294.84;;;5.97;97.69
20696;BME280;10507;52.754;13.040;2023-02-13T20:25:11;102273.63;;;5.96;97.77
20696;BME280;10507;52.754;13.040;2023-02-13T20:28:27;102283.34;;;6.00;97.56
20696;BME280;10507;52.754;13.040;2023-02-13T20:31:44;102287.75;;;6.04;97.54
20696;BME280;10507;52.754;13.040;2023-02-13T20:35:00;102279.78;;;6.02;96.94
20696;BME280;10507;52.754;13.040;2023-02-13T20:38:18;102292.16;;;6.05;97.34
20696;BME280;10507;52.754;13.040;2023-02-13T20:41:36;102274.50;;;6.02;97.00
20696;BME280;10507;52.754;13.040;2023-02-13T20:44:52;102271.84;;;6.04;97.34
20696;BME280;10507;52.754;13.040;2023-02-13T20:48:10;102287.75;;;6.04;97.44
20696;BME280;10507;52.754;13.040;2023-02-13T20:51:27;102291.28;;;6.03;97.61
20696;BME280;10507;52.754;13.040;2023-02-13T20:54:44;102292.19;;;5.97;97.88
20696;BME280;10507;52.754;13.040;2023-02-13T20:58:00;102293.97;;;5.95;97.25
20696;BME280;10507;52.754;13.040;2023-02-13T21:01:17;102265.69;;;5.93;97.22
20696;BME280;10507;52.754;13.040;2023-02-13T21:04:34;102292.22;;;5.94;97.05
20696;BME280;10507;52.754;13.040;2023-02-13T21:07:50;102281.56;;;5.91;97.58
20696;BME280;10507;52.754;13.040;2023-02-13T21:11:08;102294.84;;;5.93;97.90
20696;BME280;10507;52.754;13.040;2023-02-13T21:14:24;102298.38;;;5.89;97.45
20696;BME280;10507;52.754;13.040;2023-02-13T21:17:40;102301.91;;;5.89;96.91
20696;BME280;10507;52.754;13.040;2023-02-13T21:20:56;102282.47;;;5.89;97.35
20696;BME280;10507;52.754;13.040;2023-02-13T21:24:13;102297.50;;;5.93;97.76
20696;BME280;10507;52.754;13.040;2023-02-13T21:27:32;102291.34;;;5.88;97.48
20696;BME280;10507;52.754;13.040;2023-02-13T21:30:49;102276.31;;;5.83;97.66
20696;BME280;10507;52.754;13.040;2023-02-13T21:34:07;102273.69;;;5.83;97.15
20696;BME280;10507;52.754;13.040;2023-02-13T21:36:37;102288.69;;;5.86;97.27
20696;BME280;10507;52.754;13.040;2023-02-13T21:39:06;102292.19;;;5.85;97.58
20696;BME280;10507;52.754;13.040;2023-02-13T21:41:37;102291.31;;;5.86;96.94
20696;BME280;10507;52.754;13.040;2023-02-13T21:44:07;102278.97;;;5.90;97.11
20696;BME280;10507;52.754;13.040;2023-02-13T21:46:36;102297.50;;;5.90;97.21
20696;BME280;10507;52.754;13.040;2023-02-13T21:49:05;102290.44;;;5.87;97.44
20696;BME280;10507;52.754;13.040;2023-02-13T21:51:36;102271.91;;;5.79;97.18
20696;BME280;10507;52.754;13.040;2023-02-13T21:54:04;102298.38;;;5.87;97.20
20696;BME280;10507;52.754;13.040;2023-02-13T21:56:35;102286.03;;;5.84;97.09
20696;BME280;10507;52.754;13.040;2023-02-13T21:59:04;102287.81;;;5.81;97.77
20696;BME280;10507;52.754;13.040;2023-02-13T22:01:35;102288.69;;;5.83;97.61
20696;BME280;10507;52.754;13.040;2023-02-13T22:04:05;102290.44;;;5.84;97.47
20696;BME280;10507;52.754;13.040;2023-02-13T22:06:35;102278.09;;;5.81;97.16
20696;BME280;10507;52.754;13.040;2023-02-13T22:09:08;102278.97;;;5.83;96.98
20696;BME280;10507;52.754;13.040;2023-02-13T22:11:36;102270.16;;;5.81;96.88
20696;BME280;10507;52.754;13.040;2023-02-13T22:14:06;102306.31;;;5.87;97.27
20696;BME280;10507;52.754;13.040;2023-02-13T22:16:36;102305.47;;;5.83;97.67
20696;BME280;10507;52.754;13.040;2023-02-13T22:19:06;102304.56;;;5.84;97.46
20696;BME280;10507;52.754;13.040;2023-02-13T22:21:55;102268.38;;;5.83;96.86
20696;BME280;10507;52.754;13.040;2023-02-13T22:24:44;102249.78;;;5.85;96.29
20696;BME280;10507;52.754;13.040;2023-02-13T22:27:36;102263.06;;;5.83;97.22
20696;BME280;10507;52.754;13.040;2023-02-13T22:30:21;102236.59;;;5.77;96.89
20696;BME280;10507;52.754;13.040;2023-02-13T22:33:11;102258.69;;;5.76;97.11
20696;BME280;10507;52.754;13.040;2023-02-13T22:36:00;102262.22;;;5.75;97.05
20696;BME280;10507;52.754;13.040;2023-02-13T22:38:53;102252.50;;;5.71;97.33
20696;BME280;10507;52.754;13.040;2023-02-13T22:41:38;102271.06;;;5.74;96.96
20696;BME280;10507;52.754;13.040;2023-02-13T22:44:28;102286.06;;;5.75;97.37
20696;BME280;10507;52.754;13.040;2023-02-13T22:47:13;102270.19;;;5.72;96.97
20696;BME280;10507;52.754;13.040;2023-02-13T22:50:02;102305.50;;;5.77;97.26
20696;BME280;10507;52.754;13.040;2023-02-13T22:52:54;102279.91;;;5.72;97.21
20696;BME280;10507;52.754;13.040;2023-02-13T22:55:46;102296.69;;;5.72;97.07
20696;BME280;10507;52.754;13.040;2023-02-13T22:58:38;102275.47;;;5.74;96.65
20696;BME280;10507;52.754;13.040;2023-02-13T23:01:33;102265.72;;;5.76;96.72
20696;BME280;10507;52.754;13.040;2023-02-13T23:04:27;102293.13;;;5.79;97.08
20696;BME280;10507;52.754;13.040;2023-02-13T23:07:20;102277.25;;;5.76;96.99
20696;BME280;10507;52.754;13.040;2023-02-13T23:10:12;102260.44;;;5.77;96.61
20696;BME280;10507;52.754;13.040;2023-02-13T23:13:06;102301.94;;;5.78;97.48
20696;BME280;10507;52.754;13.040;2023-02-13T23:15:57;102354.06;;;5.78;98.13
20696;BME280;10507;52.754;13.040;2023-02-13T23:18:50;102370.00;;;5.72;98.57
20696;BME280;10507;52.754;13.040;2023-02-13T23:21:41;102421.25;;;5.72;99.18
20696;BME280;10507;52.754;13.040;2023-02-13T23:24:34;102437.13;;;5.74;99.46
20696;BME280;10507;52.754;13.040;2023-02-13T23:27:26;102372.66;;;5.70;98.19
20696;BME280;10507;52.754;13.040;2023-02-13T23:30:18;102248.09;;;5.76;96.19
20696;BME280;10507;52.754;13.040;2023-02-13T23:33:11;102199.50;;;5.74;96.07
20696;BME280;10507;52.754;13.040;2023-02-13T23:36:03;102182.75;;;5.65;95.98
20696;BME280;10507;52.754;13.040;2023-02-13T23:38:59;102182.75;;;5.66;95.96
20696;BME280;10507;52.754;13.040;2023-02-13T23:41:52;102210.13;;;5.68;96.35
20696;BME280;10507;52.754;13.040;2023-02-13T23:44:44;102195.09;;;5.69;95.79
20696;BME280;10507;52.754;13.040;2023-02-13T23:47:36;102203.94;;;5.69;95.76
20696;BME280;10507;52.754;13.040;2023-02-13T23:50:28;102217.19;;;5.71;96.15
20696;BME280;10507;52.754;13.040;2023-02-13T23:53:20;102195.97;;;5.72;95.60
20696;BME280;10507;52.754;13.040;2023-02-13T23:56:12;102145.59;;;5.74;94.68
20696;BME280;10507;52.754;13.040;2023-02-13T23:59:05;102156.19;;;5.75;95.67
